sensor_id;sensor_type;location;lat;lon;timestamp;P1;durP1;ratioP1;P2;durP2;ratioP2
46651;SDS011;32377;52.182;5.398;2022-08-19T00:00:17;14.18;;;10.60;;
46651;SDS011;32377;52.182;5.398;2022-08-19T00:02:44;11.90;;;10.40;;
46651;SDS011;32377;52.182;5.398;2022-08-19T00:05:11;17.50;;;11.77;;
46651;SDS011;32377;52.182;5.398;2022-08-19T00:07:37;12.18;;;10.30;;
46651;SDS011;32377;52.182;5.398;2022-08-19T00:10:06;14.18;;;10.95;;
46651;SDS011;32377;52.182;5.398;2022-08-19T00:12:33;11.95;;;10.20;;
46651;SDS011;32377;52.182;5.398;2022-08-19T00:14:59;14.77;;;10.75;;
46651;SDS011;32377;52.182;5.398;2022-08-19T00:17:24;14.88;;;9.80;;
46651;SDS011;32377;52.182;5.398;2022-08-19T00:19:50;10.85;;;9.75;;
46651;SDS011;32377;52.182;5.398;2022-08-19T00:22:16;12.02;;;10.52;;
46651;SDS011;32377;52.182;5.398;2022-08-19T00:24:43;12.57;;;9.77;;
46651;SDS011;32377;52.182;5.398;2022-08-19T00:27:10;14.40;;;10.25;;
46651;SDS011;32377;52.182;5.398;2022-08-19T00:29:36;13.43;;;9.70;;
46651;SDS011;32377;52.182;5.398;2022-08-19T00:32:02;14.32;;;10.98;;
46651;SDS011;32377;52.182;5.398;2022-08-19T00:34:27;13.20;;;10.90;;
46651;SDS011;32377;52.182;5.398;2022-08-19T00:36:54;16.58;;;11.23;;
46651;SDS011;32377;52.182;5.398;2022-08-19T00:39:19;11.35;;;10.13;;
46651;SDS011;32377;52.182;5.398;2022-08-19T00:41:46;17.13;;;11.60;;
46651;SDS011;32377;52.182;5.398;2022-08-19T00:46:48;13.73;;;11.80;;
46651;SDS011;32377;52.182;5.398;2022-08-19T00:49:20;14.32;;;12.02;;
46651;SDS011;32377;52.182;5.398;2022-08-19T00:51:53;16.40;;;12.10;;
46651;SDS011;32377;52.182;5.398;2022-08-19T00:54:26;14.80;;;11.90;;
46651;SDS011;32377;52.182;5.398;2022-08-19T00:56:53;19.27;;;12.60;;
46651;SDS011;32377;52.182;5.398;2022-08-19T00:59:19;16.15;;;13.25;;
46651;SDS011;32377;52.182;5.398;2022-08-19T01:01:45;17.90;;;14.18;;
46651;SDS011;32377;52.182;5.398;2022-08-19T01:04:12;20.55;;;13.77;;
46651;SDS011;32377;52.182;5.398;2022-08-19T01:06:38;18.17;;;14.00;;
46651;SDS011;32377;52.182;5.398;2022-08-19T01:09:06;17.85;;;13.98;;
46651;SDS011;32377;52.182;5.398;2022-08-19T01:11:39;17.00;;;12.63;;
46651;SDS011;32377;52.182;5.398;2022-08-19T01:14:07;16.83;;;12.63;;
46651;SDS011;32377;52.182;5.398;2022-08-19T01:16:33;19.48;;;12.60;;
46651;SDS011;32377;52.182;5.398;2022-08-19T01:19:00;15.15;;;11.80;;
46651;SDS011;32377;52.182;5.398;2022-08-19T01:21:31;17.55;;;13.48;;
46651;SDS011;32377;52.182;5.398;2022-08-19T01:23:57;17.67;;;13.00;;
46651;SDS011;32377;52.182;5.398;2022-08-19T01:26:24;17.77;;;14.63;;
46651;SDS011;32377;52.182;5.398;2022-08-19T01:28:51;19.42;;;14.90;;
46651;SDS011;32377;52.182;5.398;2022-08-19T01:31:20;19.33;;;14.52;;
46651;SDS011;32377;52.182;5.398;2022-08-19T01:33:49;19.58;;;14.80;;
46651;SDS011;32377;52.182;5.398;2022-08-19T01:36:22;19.77;;;16.50;;
46651;SDS011;32377;52.182;5.398;2022-08-19T01:38:53;20.25;;;16.10;;
46651;SDS011;32377;52.182;5.398;2022-08-19T01:41:19;20.42;;;16.50;;
46651;SDS011;32377;52.182;5.398;2022-08-19T01:43:45;24.08;;;17.08;;
46651;SDS011;32377;52.182;5.398;2022-08-19T01:46:11;20.65;;;16.67;;
46651;SDS011;32377;52.182;5.398;2022-08-19T01:48:40;26.10;;;18.55;;
46651;SDS011;32377;52.182;5.398;2022-08-19T01:51:07;24.98;;;18.40;;
46651;SDS011;32377;52.182;5.398;2022-08-19T01:53:33;27.00;;;18.73;;
46651;SDS011;32377;52.182;5.398;2022-08-19T01:56:00;21.65;;;18.27;;
46651;SDS011;32377;52.182;5.398;2022-08-19T01:58:27;22.67;;;19.15;;
46651;SDS011;32377;52.182;5.398;2022-08-19T02:00:57;22.45;;;18.83;;
46651;SDS011;32377;52.182;5.398;2022-08-19T02:03:23;31.10;;;19.30;;
46651;SDS011;32377;52.182;5.398;2022-08-19T02:05:53;24.20;;;18.98;;
46651;SDS011;32377;52.182;5.398;2022-08-19T02:08:20;25.08;;;19.13;;
46651;SDS011;32377;52.182;5.398;2022-08-19T02:10:46;24.50;;;19.25;;
46651;SDS011;32377;52.182;5.398;2022-08-19T02:13:13;25.15;;;19.83;;
46651;SDS011;32377;52.182;5.398;2022-08-19T02:15:38;26.33;;;20.05;;
46651;SDS011;32377;52.182;5.398;2022-08-19T02:18:04;23.38;;;18.98;;
46651;SDS011;32377;52.182;5.398;2022-08-19T02:20:30;22.85;;;18.52;;
46651;SDS011;32377;52.182;5.398;2022-08-19T02:22:56;28.60;;;20.27;;
46651;SDS011;32377;52.182;5.398;2022-08-19T02:25:21;28.60;;;21.42;;
46651;SDS011;32377;52.182;5.398;2022-08-19T02:27:47;27.08;;;20.90;;
46651;SDS011;32377;52.182;5.398;2022-08-19T02:30:13;25.88;;;18.70;;
46651;SDS011;32377;52.182;5.398;2022-08-19T02:32:41;28.27;;;20.52;;
46651;SDS011;32377;52.182;5.398;2022-08-19T02:35:07;22.67;;;18.80;;
46651;SDS011;32377;52.182;5.398;2022-08-19T02:37:33;24.17;;;20.10;;
46651;SDS011;32377;52.182;5.398;2022-08-19T02:40:17;28.45;;;19.40;;
46651;SDS011;32377;52.182;5.398;2022-08-19T02:42:43;28.13;;;18.80;;
46651;SDS011;32377;52.182;5.398;2022-08-19T02:45:10;27.55;;;18.67;;
46651;SDS011;32377;52.182;5.398;2022-08-19T02:47:37;23.13;;;18.45;;
46651;SDS011;32377;52.182;5.398;2022-08-19T02:50:03;24.70;;;18.63;;
46651;SDS011;32377;52.182;5.398;2022-08-19T02:52:29;24.83;;;19.20;;
46651;SDS011;32377;52.182;5.398;2022-08-19T02:54:56;25.40;;;18.63;;
46651;SDS011;32377;52.182;5.398;2022-08-19T02:57:22;20.95;;;17.10;;
46651;SDS011;32377;52.182;5.398;2022-08-19T02:59:48;25.42;;;19.00;;
46651;SDS011;32377;52.182;5.398;2022-08-19T03:02:14;30.08;;;18.50;;
46651;SDS011;32377;52.182;5.398;2022-08-19T03:04:40;24.38;;;17.50;;
46651;SDS011;32377;52.182;5.398;2022-08-19T03:07:07;23.75;;;18.45;;
46651;SDS011;32377;52.182;5.398;2022-08-19T03:09:33;24.33;;;18.67;;
46651;SDS011;32377;52.182;5.398;2022-08-19T03:12:02;24.75;;;18.20;;
46651;SDS011;32377;52.182;5.398;2022-08-19T03:14:32;21.40;;;17.02;;
46651;SDS011;32377;52.182;5.398;2022-08-19T03:16:58;27.85;;;18.50;;
46651;SDS011;32377;52.182;5.398;2022-08-19T03:19:24;26.73;;;19.85;;
46651;SDS011;32377;52.182;5.398;2022-08-19T03:21:50;26.80;;;20.95;;
46651;SDS011;32377;52.182;5.398;2022-08-19T03:24:16;28.13;;;20.10;;
46651;SDS011;32377;52.182;5.398;2022-08-19T03:26:44;30.73;;;22.05;;
46651;SDS011;32377;52.182;5.398;2022-08-19T03:29:12;27.45;;;19.92;;
46651;SDS011;32377;52.182;5.398;2022-08-19T03:31:39;29.55;;;20.88;;
46651;SDS011;32377;52.182;5.398;2022-08-19T03:34:06;28.05;;;21.77;;
46651;SDS011;32377;52.182;5.398;2022-08-19T03:36:32;34.63;;;23.02;;
46651;SDS011;32377;52.182;5.398;2022-08-19T03:38:58;27.02;;;22.00;;
46651;SDS011;32377;52.182;5.398;2022-08-19T03:41:26;30.33;;;21.95;;
46651;SDS011;32377;52.182;5.398;2022-08-19T03:43:53;28.73;;;20.98;;
46651;SDS011;32377;52.182;5.398;2022-08-19T03:46:21;28.65;;;19.67;;
46651;SDS011;32377;52.182;5.398;2022-08-19T03:48:51;29.98;;;20.55;;
46651;SDS011;32377;52.182;5.398;2022-08-19T03:53:51;31.77;;;21.65;;
46651;SDS011;32377;52.182;5.398;2022-08-19T03:56:18;28.77;;;20.35;;
46651;SDS011;32377;52.182;5.398;2022-08-19T03:58:44;27.55;;;19.98;;
46651;SDS011;32377;52.182;5.398;2022-08-19T04:01:11;26.48;;;19.85;;
46651;SDS011;32377;52.182;5.398;2022-08-19T04:03:38;35.00;;;20.10;;
46651;SDS011;32377;52.182;5.398;2022-08-19T04:06:11;27.63;;;19.35;;
46651;SDS011;32377;52.182;5.398;2022-08-19T04:08:41;23.13;;;18.75;;
46651;SDS011;32377;52.182;5.398;2022-08-19T04:11:09;24.48;;;19.23;;
46651;SDS011;32377;52.182;5.398;2022-08-19T04:13:36;26.98;;;19.25;;
46651;SDS011;32377;52.182;5.398;2022-08-19T04:16:03;28.77;;;19.65;;
46651;SDS011;32377;52.182;5.398;2022-08-19T04:18:30;30.67;;;20.05;;
46651;SDS011;32377;52.182;5.398;2022-08-19T04:20:57;29.23;;;19.88;;
46651;SDS011;32377;52.182;5.398;2022-08-19T04:23:23;29.02;;;18.65;;
46651;SDS011;32377;52.182;5.398;2022-08-19T04:25:49;26.50;;;18.13;;
46651;SDS011;32377;52.182;5.398;2022-08-19T04:28:15;28.95;;;18.50;;
46651;SDS011;32377;52.182;5.398;2022-08-19T04:30:50;26.17;;;19.17;;
46651;SDS011;32377;52.182;5.398;2022-08-19T04:33:20;26.67;;;19.08;;
46651;SDS011;32377;52.182;5.398;2022-08-19T04:35:48;28.73;;;19.40;;
46651;SDS011;32377;52.182;5.398;2022-08-19T04:38:15;25.65;;;18.15;;
46651;SDS011;32377;52.182;5.398;2022-08-19T04:40:43;30.20;;;19.45;;
46651;SDS011;32377;52.182;5.398;2022-08-19T04:43:30;27.27;;;18.95;;
46651;SDS011;32377;52.182;5.398;2022-08-19T04:45:57;29.08;;;18.88;;
46651;SDS011;32377;52.182;5.398;2022-08-19T04:48:23;24.15;;;17.75;;
46651;SDS011;32377;52.182;5.398;2022-08-19T04:50:52;25.42;;;18.58;;
46651;SDS011;32377;52.182;5.398;2022-08-19T04:53:31;25.83;;;18.80;;
46651;SDS011;32377;52.182;5.398;2022-08-19T04:55:59;24.88;;;17.25;;
46651;SDS011;32377;52.182;5.398;2022-08-19T04:58:26;26.20;;;18.55;;
46651;SDS011;32377;52.182;5.398;2022-08-19T05:00:52;28.25;;;18.23;;
46651;SDS011;32377;52.182;5.398;2022-08-19T05:03:20;25.88;;;18.35;;
46651;SDS011;32377;52.182;5.398;2022-08-19T05:05:47;24.90;;;17.50;;
46651;SDS011;32377;52.182;5.398;2022-08-19T05:08:14;27.45;;;19.17;;
46651;SDS011;32377;52.182;5.398;2022-08-19T05:10:46;26.58;;;17.58;;
46651;SDS011;32377;52.182;5.398;2022-08-19T05:13:16;26.90;;;18.27;;
46651;SDS011;32377;52.182;5.398;2022-08-19T05:15:43;27.02;;;17.88;;
46651;SDS011;32377;52.182;5.398;2022-08-19T05:18:17;32.05;;;18.52;;
46651;SDS011;32377;52.182;5.398;2022-08-19T05:21:05;26.10;;;18.52;;
46651;SDS011;32377;52.182;5.398;2022-08-19T05:23:51;27.77;;;19.42;;
46651;SDS011;32377;52.182;5.398;2022-08-19T05:26:17;27.50;;;18.67;;
46651;SDS011;32377;52.182;5.398;2022-08-19T05:28:42;24.13;;;17.55;;
46651;SDS011;32377;52.182;5.398;2022-08-19T05:31:08;24.67;;;18.05;;
46651;SDS011;32377;52.182;5.398;2022-08-19T05:33:33;25.83;;;17.77;;
46651;SDS011;32377;52.182;5.398;2022-08-19T05:36:00;27.73;;;18.73;;
46651;SDS011;32377;52.182;5.398;2022-08-19T05:38:27;27.98;;;20.25;;
46651;SDS011;32377;52.182;5.398;2022-08-19T05:40:53;29.08;;;21.08;;
46651;SDS011;32377;52.182;5.398;2022-08-19T05:43:19;32.58;;;21.30;;
46651;SDS011;32377;52.182;5.398;2022-08-19T05:45:44;36.80;;;23.73;;
46651;SDS011;32377;52.182;5.398;2022-08-19T05:48:11;46.42;;;26.88;;
46651;SDS011;32377;52.182;5.398;2022-08-19T05:50:40;50.65;;;30.30;;
46651;SDS011;32377;52.182;5.398;2022-08-19T05:53:06;52.88;;;32.17;;
46651;SDS011;32377;52.182;5.398;2022-08-19T05:55:34;51.85;;;33.03;;
46651;SDS011;32377;52.182;5.398;2022-08-19T05:57:59;63.33;;;34.90;;
46651;SDS011;32377;52.182;5.398;2022-08-19T06:00:26;61.85;;;35.45;;
46651;SDS011;32377;52.182;5.398;2022-08-19T06:02:52;70.55;;;38.90;;
46651;SDS011;32377;52.182;5.398;2022-08-19T06:05:19;71.97;;;39.30;;
46651;SDS011;32377;52.182;5.398;2022-08-19T06:07:45;83.05;;;44.25;;
46651;SDS011;32377;52.182;5.398;2022-08-19T06:10:10;99.15;;;47.53;;
46651;SDS011;32377;52.182;5.398;2022-08-19T06:12:38;98.97;;;47.15;;
46651;SDS011;32377;52.182;5.398;2022-08-19T06:15:11;100.25;;;48.15;;
46651;SDS011;32377;52.182;5.398;2022-08-19T06:17:38;100.93;;;48.55;;
46651;SDS011;32377;52.182;5.398;2022-08-19T06:20:05;94.28;;;46.80;;
46651;SDS011;32377;52.182;5.398;2022-08-19T06:22:37;90.20;;;48.72;;
46651;SDS011;32377;52.182;5.398;2022-08-19T06:25:04;91.43;;;49.10;;
46651;SDS011;32377;52.182;5.398;2022-08-19T06:27:30;84.78;;;44.63;;
46651;SDS011;32377;52.182;5.398;2022-08-19T06:29:57;84.22;;;45.88;;
46651;SDS011;32377;52.182;5.398;2022-08-19T06:32:22;83.60;;;45.33;;
46651;SDS011;32377;52.182;5.398;2022-08-19T06:34:48;75.38;;;43.55;;
46651;SDS011;32377;52.182;5.398;2022-08-19T06:37:14;77.35;;;42.90;;
46651;SDS011;32377;52.182;5.398;2022-08-19T06:39:40;73.30;;;42.47;;
46651;SDS011;32377;52.182;5.398;2022-08-19T06:42:08;77.35;;;44.42;;
46651;SDS011;32377;52.182;5.398;2022-08-19T06:44:38;76.63;;;42.58;;
46651;SDS011;32377;52.182;5.398;2022-08-19T06:47:07;80.60;;;44.35;;
46651;SDS011;32377;52.182;5.398;2022-08-19T06:49:34;75.72;;;42.80;;
46651;SDS011;32377;52.182;5.398;2022-08-19T06:52:00;72.25;;;40.83;;
46651;SDS011;32377;52.182;5.398;2022-08-19T06:54:27;73.35;;;41.47;;
46651;SDS011;32377;52.182;5.398;2022-08-19T06:56:54;77.50;;;41.30;;
46651;SDS011;32377;52.182;5.398;2022-08-19T06:59:22;78.30;;;40.97;;
46651;SDS011;32377;52.182;5.398;2022-08-19T07:01:52;86.10;;;42.78;;
46651;SDS011;32377;52.182;5.398;2022-08-19T07:04:21;79.20;;;42.80;;
46651;SDS011;32377;52.182;5.398;2022-08-19T07:06:49;91.32;;;46.33;;
46651;SDS011;32377;52.182;5.398;2022-08-19T07:09:21;84.00;;;45.63;;
46651;SDS011;32377;52.182;5.398;2022-08-19T07:11:48;89.13;;;44.63;;
46651;SDS011;32377;52.182;5.398;2022-08-19T07:14:16;86.05;;;44.80;;
46651;SDS011;32377;52.182;5.398;2022-08-19T07:16:46;84.00;;;45.70;;
46651;SDS011;32377;52.182;5.398;2022-08-19T07:19:14;86.95;;;45.25;;
46651;SDS011;32377;52.182;5.398;2022-08-19T07:21:40;87.13;;;45.70;;
46651;SDS011;32377;52.182;5.398;2022-08-19T07:24:07;82.13;;;45.38;;
46651;SDS011;32377;52.182;5.398;2022-08-19T07:26:37;80.57;;;45.13;;
46651;SDS011;32377;52.182;5.398;2022-08-19T07:29:05;78.10;;;43.92;;
46651;SDS011;32377;52.182;5.398;2022-08-19T07:31:31;80.15;;;43.80;;
46651;SDS011;32377;52.182;5.398;2022-08-19T07:34:02;75.35;;;45.13;;
46651;SDS011;32377;52.182;5.398;2022-08-19T07:36:32;77.65;;;44.92;;
46651;SDS011;32377;52.182;5.398;2022-08-19T07:39:00;69.85;;;41.65;;
46651;SDS011;32377;52.182;5.398;2022-08-19T07:41:29;77.82;;;44.75;;
46651;SDS011;32377;52.182;5.398;2022-08-19T07:43:56;71.65;;;41.60;;
46651;SDS011;32377;52.182;5.398;2022-08-19T07:46:23;78.43;;;44.40;;
46651;SDS011;32377;52.182;5.398;2022-08-19T07:48:49;75.43;;;42.97;;
46651;SDS011;32377;52.182;5.398;2022-08-19T07:51:17;71.00;;;42.42;;
46651;SDS011;32377;52.182;5.398;2022-08-19T07:53:45;78.63;;;43.20;;
46651;SDS011;32377;52.182;5.398;2022-08-19T07:56:13;71.53;;;40.88;;
46651;SDS011;32377;52.182;5.398;2022-08-19T07:58:41;74.43;;;42.80;;
46651;SDS011;32377;52.182;5.398;2022-08-19T08:01:09;72.45;;;40.53;;
46651;SDS011;32377;52.182;5.398;2022-08-19T08:03:37;78.30;;;41.00;;
46651;SDS011;32377;52.182;5.398;2022-08-19T08:09:08;66.90;;;38.28;;
46651;SDS011;32377;52.182;5.398;2022-08-19T08:11:41;61.42;;;36.63;;
46651;SDS011;32377;52.182;5.398;2022-08-19T08:14:14;71.00;;;37.97;;
46651;SDS011;32377;52.182;5.398;2022-08-19T08:16:42;62.75;;;38.20;;
46651;SDS011;32377;52.182;5.398;2022-08-19T08:19:09;64.70;;;36.72;;
46651;SDS011;32377;52.182;5.398;2022-08-19T08:21:35;63.22;;;37.35;;
46651;SDS011;32377;52.182;5.398;2022-08-19T08:24:00;61.22;;;36.72;;
46651;SDS011;32377;52.182;5.398;2022-08-19T08:26:26;64.80;;;38.55;;
46651;SDS011;32377;52.182;5.398;2022-08-19T08:28:52;60.55;;;36.25;;
46651;SDS011;32377;52.182;5.398;2022-08-19T08:31:18;57.50;;;34.47;;
46651;SDS011;32377;52.182;5.398;2022-08-19T08:33:45;62.10;;;34.83;;
46651;SDS011;32377;52.182;5.398;2022-08-19T08:36:12;51.13;;;33.67;;
46651;SDS011;32377;52.182;5.398;2022-08-19T08:38:39;56.97;;;34.95;;
46651;SDS011;32377;52.182;5.398;2022-08-19T08:41:09;57.88;;;34.30;;
46651;SDS011;32377;52.182;5.398;2022-08-19T08:43:53;57.58;;;34.40;;
46651;SDS011;32377;52.182;5.398;2022-08-19T08:46:29;60.72;;;36.33;;
46651;SDS011;32377;52.182;5.398;2022-08-19T08:49:20;57.80;;;33.83;;
46651;SDS011;32377;52.182;5.398;2022-08-19T08:54:44;52.10;;;32.55;;
46651;SDS011;32377;52.182;5.398;2022-08-19T08:57:13;50.75;;;33.38;;
46651;SDS011;32377;52.182;5.398;2022-08-19T08:59:45;48.95;;;30.55;;
46651;SDS011;32377;52.182;5.398;2022-08-19T09:02:16;55.10;;;33.05;;
46651;SDS011;32377;52.182;5.398;2022-08-19T09:04:42;41.92;;;28.60;;
46651;SDS011;32377;52.182;5.398;2022-08-19T09:16:05;45.58;;;30.63;;
46651;SDS011;32377;52.182;5.398;2022-08-19T09:18:49;43.88;;;29.60;;
46651;SDS011;32377;52.182;5.398;2022-08-19T09:21:22;42.85;;;29.20;;
46651;SDS011;32377;52.182;5.398;2022-08-19T09:23:50;46.38;;;27.52;;
46651;SDS011;32377;52.182;5.398;2022-08-19T09:26:17;42.05;;;28.30;;
46651;SDS011;32377;52.182;5.398;2022-08-19T09:28:45;43.13;;;27.33;;
46651;SDS011;32377;52.182;5.398;2022-08-19T09:31:13;39.97;;;27.05;;
46651;SDS011;32377;52.182;5.398;2022-08-19T09:33:40;41.47;;;27.70;;
46651;SDS011;32377;52.182;5.398;2022-08-19T09:36:10;37.88;;;28.70;;
46651;SDS011;32377;52.182;5.398;2022-08-19T09:38:37;38.33;;;27.05;;
46651;SDS011;32377;52.182;5.398;2022-08-19T09:41:09;47.25;;;30.33;;
46651;SDS011;32377;52.182;5.398;2022-08-19T09:43:38;40.92;;;29.52;;
46651;SDS011;32377;52.182;5.398;2022-08-19T09:46:06;43.92;;;29.92;;
46651;SDS011;32377;52.182;5.398;2022-08-19T09:48:33;44.17;;;31.33;;
46651;SDS011;32377;52.182;5.398;2022-08-19T09:51:04;46.40;;;32.05;;
46651;SDS011;32377;52.182;5.398;2022-08-19T09:53:32;41.15;;;28.35;;
46651;SDS011;32377;52.182;5.398;2022-08-19T09:56:02;39.90;;;28.38;;
46651;SDS011;32377;52.182;5.398;2022-08-19T09:58:29;39.30;;;27.75;;
46651;SDS011;32377;52.182;5.398;2022-08-19T10:00:57;39.92;;;28.40;;
46651;SDS011;32377;52.182;5.398;2022-08-19T10:03:23;35.58;;;25.40;;
46651;SDS011;32377;52.182;5.398;2022-08-19T10:05:49;37.08;;;27.23;;
46651;SDS011;32377;52.182;5.398;2022-08-19T10:08:17;34.58;;;24.38;;
46651;SDS011;32377;52.182;5.398;2022-08-19T10:10:50;30.50;;;23.92;;
46651;SDS011;32377;52.182;5.398;2022-08-19T10:13:18;31.17;;;24.17;;
46651;SDS011;32377;52.182;5.398;2022-08-19T10:15:48;34.65;;;25.00;;
46651;SDS011;32377;52.182;5.398;2022-08-19T10:18:17;27.33;;;21.27;;
46651;SDS011;32377;52.182;5.398;2022-08-19T10:20:45;29.45;;;20.55;;
46651;SDS011;32377;52.182;5.398;2022-08-19T10:23:12;29.23;;;20.55;;
46651;SDS011;32377;52.182;5.398;2022-08-19T10:25:37;27.55;;;20.77;;
46651;SDS011;32377;52.182;5.398;2022-08-19T10:28:03;27.70;;;21.48;;
46651;SDS011;32377;52.182;5.398;2022-08-19T10:30:30;29.02;;;20.20;;
46651;SDS011;32377;52.182;5.398;2022-08-19T10:32:57;28.38;;;20.15;;
46651;SDS011;32377;52.182;5.398;2022-08-19T10:35:22;28.67;;;20.50;;
46651;SDS011;32377;52.182;5.398;2022-08-19T10:37:51;25.33;;;18.83;;
46651;SDS011;32377;52.182;5.398;2022-08-19T10:40:17;29.35;;;22.88;;
46651;SDS011;32377;52.182;5.398;2022-08-19T10:42:42;29.85;;;22.13;;
46651;SDS011;32377;52.182;5.398;2022-08-19T10:45:09;31.80;;;21.65;;
46651;SDS011;32377;52.182;5.398;2022-08-19T10:47:35;29.25;;;21.50;;
46651;SDS011;32377;52.182;5.398;2022-08-19T10:50:02;27.42;;;21.88;;
46651;SDS011;32377;52.182;5.398;2022-08-19T10:52:47;30.55;;;22.63;;
46651;SDS011;32377;52.182;5.398;2022-08-19T10:55:14;27.98;;;21.75;;
46651;SDS011;32377;52.182;5.398;2022-08-19T10:57:59;29.67;;;21.85;;
46651;SDS011;32377;52.182;5.398;2022-08-19T11:00:24;30.98;;;22.80;;
46651;SDS011;32377;52.182;5.398;2022-08-19T11:02:51;31.15;;;23.40;;
46651;SDS011;32377;52.182;5.398;2022-08-19T11:05:17;32.22;;;24.90;;
46651;SDS011;32377;52.182;5.398;2022-08-19T11:07:43;35.53;;;24.50;;
46651;SDS011;32377;52.182;5.398;2022-08-19T11:10:10;30.83;;;23.73;;
46651;SDS011;32377;52.182;5.398;2022-08-19T11:12:38;27.13;;;21.52;;
46651;SDS011;32377;52.182;5.398;2022-08-19T11:15:08;30.98;;;22.23;;
46651;SDS011;32377;52.182;5.398;2022-08-19T11:17:36;30.15;;;23.05;;
46651;SDS011;32377;52.182;5.398;2022-08-19T11:20:05;30.63;;;23.08;;
46651;SDS011;32377;52.182;5.398;2022-08-19T11:22:32;30.65;;;22.00;;
46651;SDS011;32377;52.182;5.398;2022-08-19T11:24:57;27.83;;;21.40;;
46651;SDS011;32377;52.182;5.398;2022-08-19T11:27:23;30.38;;;22.40;;
46651;SDS011;32377;52.182;5.398;2022-08-19T11:29:48;30.90;;;22.95;;
46651;SDS011;32377;52.182;5.398;2022-08-19T11:32:14;29.67;;;21.95;;
46651;SDS011;32377;52.182;5.398;2022-08-19T11:34:41;29.55;;;23.38;;
46651;SDS011;32377;52.182;5.398;2022-08-19T11:37:06;26.17;;;20.23;;
46651;SDS011;32377;52.182;5.398;2022-08-19T11:39:33;30.15;;;22.58;;
46651;SDS011;32377;52.182;5.398;2022-08-19T11:42:01;28.05;;;22.05;;
46651;SDS011;32377;52.182;5.398;2022-08-19T11:44:48;27.30;;;20.40;;
46651;SDS011;32377;52.182;5.398;2022-08-19T11:47:14;28.35;;;21.75;;
46651;SDS011;32377;52.182;5.398;2022-08-19T11:49:40;26.65;;;21.50;;
46651;SDS011;32377;52.182;5.398;2022-08-19T11:52:07;25.77;;;19.17;;
46651;SDS011;32377;52.182;5.398;2022-08-19T11:54:32;31.58;;;21.02;;
46651;SDS011;32377;52.182;5.398;2022-08-19T11:56:58;32.05;;;22.10;;
46651;SDS011;32377;52.182;5.398;2022-08-19T11:59:24;29.83;;;20.70;;
46651;SDS011;32377;52.182;5.398;2022-08-19T12:01:51;29.38;;;19.15;;
46651;SDS011;32377;52.182;5.398;2022-08-19T12:04:17;29.77;;;22.05;;
46651;SDS011;32377;52.182;5.398;2022-08-19T12:06:42;30.33;;;21.80;;
46651;SDS011;32377;52.182;5.398;2022-08-19T12:09:08;28.05;;;22.23;;
46651;SDS011;32377;52.182;5.398;2022-08-19T12:11:35;33.35;;;22.83;;
46651;SDS011;32377;52.182;5.398;2022-08-19T12:14:02;30.85;;;22.13;;
46651;SDS011;32377;52.182;5.398;2022-08-19T12:16:28;32.45;;;22.77;;
46651;SDS011;32377;52.182;5.398;2022-08-19T12:18:55;29.35;;;21.48;;
46651;SDS011;32377;52.182;5.398;2022-08-19T12:21:23;39.10;;;24.95;;
46651;SDS011;32377;52.182;5.398;2022-08-19T12:23:53;31.85;;;23.13;;
46651;SDS011;32377;52.182;5.398;2022-08-19T12:26:20;62.20;;;34.40;;
46651;SDS011;32377;52.182;5.398;2022-08-19T12:28:45;62.33;;;40.22;;
46651;SDS011;32377;52.182;5.398;2022-08-19T12:31:12;58.88;;;40.95;;
46651;SDS011;32377;52.182;5.398;2022-08-19T12:33:38;80.85;;;47.42;;
46651;SDS011;32377;52.182;5.398;2022-08-19T12:36:05;64.93;;;45.67;;
46651;SDS011;32377;52.182;5.398;2022-08-19T12:38:32;64.50;;;39.67;;
46651;SDS011;32377;52.182;5.398;2022-08-19T12:41:02;45.22;;;32.33;;
46651;SDS011;32377;52.182;5.398;2022-08-19T12:43:31;45.40;;;29.27;;
46651;SDS011;32377;52.182;5.398;2022-08-19T12:45:57;40.53;;;30.30;;
46651;SDS011;32377;52.182;5.398;2022-08-19T12:48:22;46.78;;;29.08;;
46651;SDS011;32377;52.182;5.398;2022-08-19T12:50:48;39.03;;;28.98;;
46651;SDS011;32377;52.182;5.398;2022-08-19T12:53:13;43.25;;;31.23;;
46651;SDS011;32377;52.182;5.398;2022-08-19T12:55:40;45.83;;;30.58;;
46651;SDS011;32377;52.182;5.398;2022-08-19T12:58:07;39.80;;;29.60;;
46651;SDS011;32377;52.182;5.398;2022-08-19T13:00:33;38.53;;;29.92;;
46651;SDS011;32377;52.182;5.398;2022-08-19T13:02:59;35.72;;;26.90;;
46651;SDS011;32377;52.182;5.398;2022-08-19T13:05:28;35.40;;;26.88;;
46651;SDS011;32377;52.182;5.398;2022-08-19T13:07:56;32.75;;;23.58;;
46651;SDS011;32377;52.182;5.398;2022-08-19T13:10:25;28.98;;;23.73;;
46651;SDS011;32377;52.182;5.398;2022-08-19T13:12:52;30.33;;;22.77;;
46651;SDS011;32377;52.182;5.398;2022-08-19T13:15:19;27.70;;;23.02;;
46651;SDS011;32377;52.182;5.398;2022-08-19T13:17:46;28.73;;;25.33;;
46651;SDS011;32377;52.182;5.398;2022-08-19T13:20:14;27.73;;;23.52;;
46651;SDS011;32377;52.182;5.398;2022-08-19T13:22:40;33.50;;;25.70;;
46651;SDS011;32377;52.182;5.398;2022-08-19T13:25:07;32.42;;;26.08;;
46651;SDS011;32377;52.182;5.398;2022-08-19T13:27:33;35.90;;;28.45;;
46651;SDS011;32377;52.182;5.398;2022-08-19T13:30:00;36.13;;;27.70;;
46651;SDS011;32377;52.182;5.398;2022-08-19T13:32:46;34.50;;;26.67;;
46651;SDS011;32377;52.182;5.398;2022-08-19T13:35:30;32.85;;;26.00;;
46651;SDS011;32377;52.182;5.398;2022-08-19T13:37:56;33.65;;;28.02;;
46651;SDS011;32377;52.182;5.398;2022-08-19T13:40:22;32.45;;;27.35;;
46651;SDS011;32377;52.182;5.398;2022-08-19T13:42:52;35.20;;;27.38;;
46651;SDS011;32377;52.182;5.398;2022-08-19T13:45:21;40.53;;;28.77;;
46651;SDS011;32377;52.182;5.398;2022-08-19T13:47:49;36.10;;;29.02;;
46651;SDS011;32377;52.182;5.398;2022-08-19T13:50:17;29.92;;;25.13;;
46651;SDS011;32377;52.182;5.398;2022-08-19T13:52:46;31.50;;;24.15;;
46651;SDS011;32377;52.182;5.398;2022-08-19T13:55:12;30.85;;;23.20;;
46651;SDS011;32377;52.182;5.398;2022-08-19T13:57:39;31.25;;;22.67;;
46651;SDS011;32377;52.182;5.398;2022-08-19T14:00:16;26.58;;;20.38;;
46651;SDS011;32377;52.182;5.398;2022-08-19T14:02:43;24.85;;;19.70;;
46651;SDS011;32377;52.182;5.398;2022-08-19T14:05:15;23.17;;;18.15;;
46651;SDS011;32377;52.182;5.398;2022-08-19T14:07:41;22.65;;;17.85;;
46651;SDS011;32377;52.182;5.398;2022-08-19T14:10:07;22.35;;;18.02;;
46651;SDS011;32377;52.182;5.398;2022-08-19T14:12:35;24.00;;;17.50;;
46651;SDS011;32377;52.182;5.398;2022-08-19T14:15:02;22.20;;;17.92;;
46651;SDS011;32377;52.182;5.398;2022-08-19T14:17:30;22.98;;;17.98;;
46651;SDS011;32377;52.182;5.398;2022-08-19T14:19:56;23.63;;;17.38;;
46651;SDS011;32377;52.182;5.398;2022-08-19T14:22:31;26.63;;;19.05;;
46651;SDS011;32377;52.182;5.398;2022-08-19T14:24:57;24.13;;;17.83;;
46651;SDS011;32377;52.182;5.398;2022-08-19T14:27:23;24.38;;;17.15;;
46651;SDS011;32377;52.182;5.398;2022-08-19T14:29:50;21.25;;;14.90;;
46651;SDS011;32377;52.182;5.398;2022-08-19T14:32:16;22.05;;;16.77;;
46651;SDS011;32377;52.182;5.398;2022-08-19T14:34:41;19.05;;;16.33;;
46651;SDS011;32377;52.182;5.398;2022-08-19T14:37:09;18.45;;;14.00;;
46651;SDS011;32377;52.182;5.398;2022-08-19T14:39:34;16.27;;;13.88;;
46651;SDS011;32377;52.182;5.398;2022-08-19T14:42:00;22.77;;;14.25;;
46651;SDS011;32377;52.182;5.398;2022-08-19T14:44:26;19.60;;;15.00;;